TimeHST,TemperatureF,Dew PointF,Humidity,Sea Level PressureIn,VisibilityMPH,Wind Direction,Wind SpeedMPH,Gust SpeedMPH,PrecipitationIn,Events,Conditions,WindDirDegrees,DateUTC
12:55 AM,63.9,61.7,93,29.93,10.0,Calm,Calm,-,N/A,,Scattered Clouds,0,2012-12-07 10:55:00
1:55 AM,63.3,61.2,93,29.92,10.0,Calm,Calm,-,N/A,,Scattered Clouds,0,2012-12-07 11:55:00
2:01 AM,62.6,60.8,94,29.91,10.0,Calm,Calm,-,N/A,,Scattered Clouds,0,2012-12-07 12:01:00
2:11 AM,64.4,62.6,94,29.91,10.0,Calm,Calm,-,N/A,,Mostly Cloudy,0,2012-12-07 12:11:00
2:17 AM,66.2,62.6,88,29.91,10.0,Calm,Calm,-,N/A,,Mostly Cloudy,0,2012-12-07 12:17:00
2:55 AM,67.3,64.2,90,29.91,10.0,East,3.5,-,N/A,,Mostly Cloudy,90,2012-12-07 12:55:00
3:55 AM,67.8,64.6,89,29.91,10.0,Calm,Calm,-,N/A,,Mostly Cloudy,0,2012-12-07 13:55:00
4:55 AM,67.3,64.0,89,29.91,10.0,Calm,Calm,-,N/A,,Overcast,0,2012-12-07 14:55:00
5:04 AM,66.2,64.4,94,29.92,10.0,Calm,Calm,-,N/A,,Overcast,0,2012-12-07 15:04:00
5:37 AM,66.2,64.4,94,29.93,10.0,Calm,Calm,-,N/A,,Overcast,0,2012-12-07 15:37:00
5:55 AM,66.4,63.9,92,29.94,10.0,Calm,Calm,-,N/A,,Mostly Cloudy,0,2012-12-07 15:55:00
6:55 AM,66.0,63.9,93,29.95,10.0,Calm,Calm,-,N/A,,Mostly Cloudy,0,2012-12-07 16:55:00
7:55 AM,67.5,64.8,91,29.98,10.0,Calm,Calm,-,N/A,,Scattered Clouds,0,2012-12-07 17:55:00
8:39 AM,73.4,66.2,78,29.99,10.0,Calm,Calm,-,N/A,,Mostly Cloudy,0,2012-12-07 18:39:00
8:42 AM,73.4,66.2,78,29.99,10.0,Calm,Calm,-,N/A,,Light Drizzle,0,2012-12-07 18:42:00
8:45 AM,73.4,66.2,78,29.99,10.0,Calm,Calm,-,N/A,,Light Drizzle,0,2012-12-07 18:45:00
8:47 AM,73.4,66.2,78,29.99,10.0,Calm,Calm,-,N/A,,Light Drizzle,0,2012-12-07 18:47:00
8:51 AM,73.4,64.4,73,29.99,10.0,Calm,Calm,-,N/A,,Mostly Cloudy,0,2012-12-07 18:51:00
8:55 AM,73.6,65.3,75,30.00,10.0,Calm,Calm,-,0.00,,Mostly Cloudy,0,2012-12-07 18:55:00
9:04 AM,73.4,66.2,78,29.99,10.0,NNE,3.5,-,N/A,,Mostly Cloudy,20,2012-12-07 19:04:00
9:21 AM,73.4,64.4,73,30.00,10.0,Calm,Calm,-,N/A,,Mostly Cloudy,0,2012-12-07 19:21:00
9:27 AM,75.2,66.2,73,30.00,10.0,Calm,Calm,-,N/A,,Mostly Cloudy,0,2012-12-07 19:27:00
9:29 AM,75.2,64.4,69,30.00,10.0,Calm,Calm,-,N/A,,Mostly Cloudy,0,2012-12-07 19:29:00
9:53 AM,75.2,64.4,69,30.00,10.0,Calm,Calm,-,N/A,,Mostly Cloudy,0,2012-12-07 19:53:00
9:55 AM,76.1,64.8,68,29.99,10.0,Calm,Calm,-,N/A,,Mostly Cloudy,0,2012-12-07 19:55:00
10:55 AM,79.9,62.6,55,29.99,10.0,WSW,8.1,-,N/A,,Clear,250,2012-12-07 20:55:00
11:55 AM,79.5,63.7,58,29.96,10.0,WSW,8.1,-,N/A,,Partly Cloudy,250,2012-12-07 21:55:00
12:55 PM,77.4,66.7,70,29.93,10.0,NNW,12.7,-,N/A,,Overcast,330,2012-12-07 22:55:00
1:55 PM,77.7,64.0,63,29.89,10.0,WNW,4.6,-,N/A,,Mostly Cloudy,300,2012-12-07 23:55:00
2:55 PM,78.1,66.2,67,29.87,10.0,Calm,Calm,-,N/A,,Mostly Cloudy,0,2012-12-08 00:55:00
3:03 PM,78.8,66.2,65,29.86,10.0,East,9.2,-,N/A,,Mostly Cloudy,90,2012-12-08 01:03:00
3:46 PM,77.0,66.2,69,29.85,10.0,Variable,5.8,-,N/A,,Mostly Cloudy,0,2012-12-08 01:46:00
3:55 PM,76.1,65.8,70,29.85,10.0,SE,6.9,-,N/A,,Scattered Clouds,130,2012-12-08 01:55:00
4:28 PM,75.2,64.4,69,29.84,10.0,SE,8.1,-,N/A,,Mostly Cloudy,130,2012-12-08 02:28:00
4:53 PM,73.4,64.4,73,29.83,10.0,SE,6.9,-,N/A,,Overcast,130,2012-12-08 02:53:00
4:55 PM,74.1,65.1,73,29.83,10.0,ESE,6.9,-,N/A,,Overcast,120,2012-12-08 02:55:00
5:55 PM,72.5,64.8,77,29.86,10.0,SSE,5.8,-,N/A,,Mostly Cloudy,160,2012-12-08 03:55:00
6:55 PM,70.2,64.2,81,29.88,10.0,Calm,Calm,-,N/A,,Clear,0,2012-12-08 04:55:00
7:55 PM,69.3,63.5,82,29.91,10.0,West,4.6,-,N/A,,Mostly Cloudy,280,2012-12-08 05:55:00
8:55 PM,67.8,62.8,84,29.93,10.0,WNW,4.6,-,N/A,,Partly Cloudy,300,2012-12-08 06:55:00
9:55 PM,67.5,63.3,87,29.94,10.0,Calm,Calm,-,N/A,,Mostly Cloudy,0,2012-12-08 07:55:00
10:55 PM,66.4,62.6,88,29.93,10.0,NW,3.5,-,N/A,,Clear,320,2012-12-08 08:55:00
11:55 PM,65.5,62.6,90,29.93,10.0,Calm,Calm,-,N/A,,Clear,0,2012-12-08 09:55:00